sensor_id;sensor_type;location;lat;lon;timestamp;temperature;humidity
52211;DHT22;38179;52.756;6.906;2023-08-08T00:01:37;13.10;99.90
52211;DHT22;38179;52.756;6.906;2023-08-08T00:04:04;13.10;99.90
52211;DHT22;38179;52.756;6.906;2023-08-08T00:06:30;13.10;99.90
52211;DHT22;38179;52.756;6.906;2023-08-08T00:08:56;13.10;99.90
52211;DHT22;38179;52.756;6.906;2023-08-08T00:11:22;13.10;99.90
52211;DHT22;38179;52.756;6.906;2023-08-08T00:13:48;13.10;99.90
52211;DHT22;38179;52.756;6.906;2023-08-08T00:16:14;13.10;99.90
52211;DHT22;38179;52.756;6.906;2023-08-08T00:18:40;13.10;99.90
52211;DHT22;38179;52.756;6.906;2023-08-08T00:21:06;13.10;99.90
52211;DHT22;38179;52.756;6.906;2023-08-08T00:23:32;13.10;99.90
52211;DHT22;38179;52.756;6.906;2023-08-08T00:25:58;13.10;99.90
52211;DHT22;38179;52.756;6.906;2023-08-08T00:28:24;13.10;99.90
52211;DHT22;38179;52.756;6.906;2023-08-08T00:30:50;13.10;99.90
52211;DHT22;38179;52.756;6.906;2023-08-08T00:33:16;13.00;99.90
52211;DHT22;38179;52.756;6.906;2023-08-08T00:35:42;13.10;99.90
52211;DHT22;38179;52.756;6.906;2023-08-08T00:38:08;13.10;99.90
52211;DHT22;38179;52.756;6.906;2023-08-08T00:40:35;13.10;99.90
52211;DHT22;38179;52.756;6.906;2023-08-08T00:43:01;13.10;99.90
52211;DHT22;38179;52.756;6.906;2023-08-08T00:45:27;13.10;99.90
52211;DHT22;38179;52.756;6.906;2023-08-08T00:47:54;13.10;99.90
52211;DHT22;38179;52.756;6.906;2023-08-08T00:50:20;13.10;99.90
52211;DHT22;38179;52.756;6.906;2023-08-08T00:52:47;13.10;99.90
52211;DHT22;38179;52.756;6.906;2023-08-08T00:55:13;13.10;99.90
52211;DHT22;38179;52.756;6.906;2023-08-08T00:57:40;13.00;99.90
52211;DHT22;38179;52.756;6.906;2023-08-08T01:00:07;13.10;99.90
52211;DHT22;38179;52.756;6.906;2023-08-08T01:02:37;13.10;99.90
52211;DHT22;38179;52.756;6.906;2023-08-08T01:05:04;13.10;99.90
52211;DHT22;38179;52.756;6.906;2023-08-08T01:07:47;13.10;99.90
52211;DHT22;38179;52.756;6.906;2023-08-08T01:12:55;13.10;99.90
52211;DHT22;38179;52.756;6.906;2023-08-08T01:15:23;13.10;99.90
52211;DHT22;38179;52.756;6.906;2023-08-08T01:17:49;13.10;99.90
52211;DHT22;38179;52.756;6.906;2023-08-08T01:20:16;13.20;99.90
52211;DHT22;38179;52.756;6.906;2023-08-08T01:22:55;13.20;99.90
52211;DHT22;38179;52.756;6.906;2023-08-08T01:25:24;13.20;99.90
52211;DHT22;38179;52.756;6.906;2023-08-08T01:27:50;13.20;99.90
52211;DHT22;38179;52.756;6.906;2023-08-08T01:30:16;13.20;99.90
52211;DHT22;38179;52.756;6.906;2023-08-08T01:32:42;13.20;99.90
52211;DHT22;38179;52.756;6.906;2023-08-08T01:35:08;13.30;99.90
52211;DHT22;38179;52.756;6.906;2023-08-08T01:37:47;13.30;99.90
52211;DHT22;38179;52.756;6.906;2023-08-08T01:40:17;13.30;99.90
52211;DHT22;38179;52.756;6.906;2023-08-08T01:42:46;13.30;99.90
52211;DHT22;38179;52.756;6.906;2023-08-08T01:45:13;13.30;99.90
52211;DHT22;38179;52.756;6.906;2023-08-08T01:47:39;13.30;99.90
52211;DHT22;38179;52.756;6.906;2023-08-08T01:50:05;13.30;99.90
52211;DHT22;38179;52.756;6.906;2023-08-08T01:52:31;13.30;99.90
52211;DHT22;38179;52.756;6.906;2023-08-08T01:54:57;13.40;99.90
52211;DHT22;38179;52.756;6.906;2023-08-08T01:57:23;13.30;99.90
52211;DHT22;38179;52.756;6.906;2023-08-08T01:59:50;13.30;99.90
52211;DHT22;38179;52.756;6.906;2023-08-08T02:02:16;13.30;99.90
52211;DHT22;38179;52.756;6.906;2023-08-08T02:04:43;13.40;99.90
52211;DHT22;38179;52.756;6.906;2023-08-08T02:07:09;13.40;99.90
52211;DHT22;38179;52.756;6.906;2023-08-08T02:09:35;13.40;99.90
52211;DHT22;38179;52.756;6.906;2023-08-08T02:12:01;13.40;99.90
52211;DHT22;38179;52.756;6.906;2023-08-08T02:14:27;13.40;99.90
52211;DHT22;38179;52.756;6.906;2023-08-08T02:16:53;13.40;99.90
52211;DHT22;38179;52.756;6.906;2023-08-08T02:19:18;13.40;99.90
52211;DHT22;38179;52.756;6.906;2023-08-08T02:21:45;13.40;99.90
52211;DHT22;38179;52.756;6.906;2023-08-08T02:24:11;13.50;99.90
52211;DHT22;38179;52.756;6.906;2023-08-08T02:26:37;13.40;99.90
52211;DHT22;38179;52.756;6.906;2023-08-08T02:29:03;13.50;99.90
52211;DHT22;38179;52.756;6.906;2023-08-08T02:31:29;13.50;99.90
52211;DHT22;38179;52.756;6.906;2023-08-08T02:33:55;13.40;99.90
52211;DHT22;38179;52.756;6.906;2023-08-08T02:36:20;13.50;99.90
52211;DHT22;38179;52.756;6.906;2023-08-08T02:38:48;13.40;99.90
52211;DHT22;38179;52.756;6.906;2023-08-08T02:41:15;13.50;99.90
52211;DHT22;38179;52.756;6.906;2023-08-08T02:43:41;13.50;99.90
52211;DHT22;38179;52.756;6.906;2023-08-08T02:46:07;13.50;99.90
52211;DHT22;38179;52.756;6.906;2023-08-08T02:48:33;13.50;99.90
52211;DHT22;38179;52.756;6.906;2023-08-08T02:50:58;13.50;99.90
52211;DHT22;38179;52.756;6.906;2023-08-08T02:53:24;13.50;99.90
52211;DHT22;38179;52.756;6.906;2023-08-08T02:55:50;13.50;99.90
52211;DHT22;38179;52.756;6.906;2023-08-08T02:58:16;13.50;99.90
52211;DHT22;38179;52.756;6.906;2023-08-08T03:00:42;13.50;99.90
52211;DHT22;38179;52.756;6.906;2023-08-08T03:03:08;13.50;99.90
52211;DHT22;38179;52.756;6.906;2023-08-08T03:05:34;13.50;99.90
52211;DHT22;38179;52.756;6.906;2023-08-08T03:08:00;13.50;99.90
52211;DHT22;38179;52.756;6.906;2023-08-08T03:10:26;13.50;99.90
52211;DHT22;38179;52.756;6.906;2023-08-08T03:12:52;13.60;99.90
52211;DHT22;38179;52.756;6.906;2023-08-08T03:15:18;13.60;99.90
52211;DHT22;38179;52.756;6.906;2023-08-08T03:17:43;13.60;99.90
52211;DHT22;38179;52.756;6.906;2023-08-08T03:20:10;13.60;99.90
52211;DHT22;38179;52.756;6.906;2023-08-08T03:22:37;13.60;99.90
52211;DHT22;38179;52.756;6.906;2023-08-08T03:25:03;13.60;99.90
52211;DHT22;38179;52.756;6.906;2023-08-08T03:27:32;13.60;99.90
52211;DHT22;38179;52.756;6.906;2023-08-08T03:29:58;13.60;99.90
52211;DHT22;38179;52.756;6.906;2023-08-08T03:32:24;13.60;99.90
52211;DHT22;38179;52.756;6.906;2023-08-08T03:34:49;13.60;99.90
52211;DHT22;38179;52.756;6.906;2023-08-08T03:37:15;13.60;99.90
52211;DHT22;38179;52.756;6.906;2023-08-08T03:39:41;13.60;99.90
52211;DHT22;38179;52.756;6.906;2023-08-08T03:42:07;13.60;99.90
52211;DHT22;38179;52.756;6.906;2023-08-08T03:44:33;13.60;99.90
52211;DHT22;38179;52.756;6.906;2023-08-08T03:46:59;13.60;99.90
52211;DHT22;38179;52.756;6.906;2023-08-08T03:51:54;13.60;99.90
52211;DHT22;38179;52.756;6.906;2023-08-08T03:54:20;13.60;99.90
52211;DHT22;38179;52.756;6.906;2023-08-08T06:19:34;14.10;99.90
52211;DHT22;38179;52.756;6.906;2023-08-08T06:22:00;14.00;99.90
52211;DHT22;38179;52.756;6.906;2023-08-08T06:24:26;14.00;99.90
52211;DHT22;38179;52.756;6.906;2023-08-08T06:26:52;14.00;99.90
52211;DHT22;38179;52.756;6.906;2023-08-08T06:29:18;14.00;99.90
52211;DHT22;38179;52.756;6.906;2023-08-08T06:31:43;14.00;99.90
52211;DHT22;38179;52.756;6.906;2023-08-08T06:34:09;14.10;99.90
52211;DHT22;38179;52.756;6.906;2023-08-08T06:36:35;14.10;99.90
52211;DHT22;38179;52.756;6.906;2023-08-08T06:39:02;14.10;99.90
52211;DHT22;38179;52.756;6.906;2023-08-08T06:41:28;14.20;99.90
52211;DHT22;38179;52.756;6.906;2023-08-08T06:43:54;14.30;99.90
52211;DHT22;38179;52.756;6.906;2023-08-08T06:46:20;14.30;99.90
52211;DHT22;38179;52.756;6.906;2023-08-08T06:48:46;14.40;99.90
52211;DHT22;38179;52.756;6.906;2023-08-08T06:51:13;14.40;99.90
52211;DHT22;38179;52.756;6.906;2023-08-08T06:53:39;14.50;99.90
52211;DHT22;38179;52.756;6.906;2023-08-08T06:56:05;14.50;99.90
52211;DHT22;38179;52.756;6.906;2023-08-08T06:58:31;14.60;99.90
52211;DHT22;38179;52.756;6.906;2023-08-08T07:00:56;14.60;99.90
52211;DHT22;38179;52.756;6.906;2023-08-08T07:03:22;14.60;99.90
52211;DHT22;38179;52.756;6.906;2023-08-08T07:05:48;14.70;99.90
52211;DHT22;38179;52.756;6.906;2023-08-08T07:08:21;14.70;99.90
52211;DHT22;38179;52.756;6.906;2023-08-08T07:10:47;14.70;99.90
52211;DHT22;38179;52.756;6.906;2023-08-08T07:13:13;14.80;99.90
52211;DHT22;38179;52.756;6.906;2023-08-08T07:15:41;14.80;99.90
52211;DHT22;38179;52.756;6.906;2023-08-08T07:18:07;14.90;99.90
52211;DHT22;38179;52.756;6.906;2023-08-08T07:20:33;14.90;99.90
52211;DHT22;38179;52.756;6.906;2023-08-08T07:22:59;15.00;99.90
52211;DHT22;38179;52.756;6.906;2023-08-08T07:25:26;15.00;99.90
52211;DHT22;38179;52.756;6.906;2023-08-08T07:27:52;15.10;99.90
52211;DHT22;38179;52.756;6.906;2023-08-08T07:30:17;15.20;99.90
52211;DHT22;38179;52.756;6.906;2023-08-08T07:32:43;15.30;99.90
52211;DHT22;38179;52.756;6.906;2023-08-08T07:35:09;15.30;99.90
52211;DHT22;38179;52.756;6.906;2023-08-08T07:37:36;15.30;99.90
52211;DHT22;38179;52.756;6.906;2023-08-08T07:40:02;15.30;99.90
52211;DHT22;38179;52.756;6.906;2023-08-08T07:42:29;15.40;99.90
52211;DHT22;38179;52.756;6.906;2023-08-08T07:44:55;15.40;99.90
52211;DHT22;38179;52.756;6.906;2023-08-08T07:47:21;15.50;99.90
52211;DHT22;38179;52.756;6.906;2023-08-08T07:49:47;15.50;99.90
52211;DHT22;38179;52.756;6.906;2023-08-08T07:52:13;15.50;99.90
52211;DHT22;38179;52.756;6.906;2023-08-08T07:54:39;15.60;99.90
52211;DHT22;38179;52.756;6.906;2023-08-08T07:57:05;15.60;99.90
52211;DHT22;38179;52.756;6.906;2023-08-08T07:59:31;15.60;99.90
52211;DHT22;38179;52.756;6.906;2023-08-08T08:01:57;15.60;99.90
52211;DHT22;38179;52.756;6.906;2023-08-08T08:04:23;15.60;99.90
52211;DHT22;38179;52.756;6.906;2023-08-08T08:06:49;15.70;99.90
52211;DHT22;38179;52.756;6.906;2023-08-08T08:09:15;15.70;99.90
52211;DHT22;38179;52.756;6.906;2023-08-08T08:11:41;15.80;99.90
52211;DHT22;38179;52.756;6.906;2023-08-08T08:14:06;15.80;99.90
52211;DHT22;38179;52.756;6.906;2023-08-08T08:16:33;15.90;99.90
52211;DHT22;38179;52.756;6.906;2023-08-08T08:18:59;16.00;99.90
52211;DHT22;38179;52.756;6.906;2023-08-08T08:21:25;16.10;99.90
52211;DHT22;38179;52.756;6.906;2023-08-08T08:23:51;16.20;99.90
52211;DHT22;38179;52.756;6.906;2023-08-08T08:26:16;16.20;99.90
52211;DHT22;38179;52.756;6.906;2023-08-08T08:28:42;16.20;99.90
52211;DHT22;38179;52.756;6.906;2023-08-08T08:31:08;16.20;99.90
52211;DHT22;38179;52.756;6.906;2023-08-08T08:33:34;16.10;99.90
52211;DHT22;38179;52.756;6.906;2023-08-08T08:36:00;16.10;99.90
52211;DHT22;38179;52.756;6.906;2023-08-08T08:38:26;16.10;99.90
52211;DHT22;38179;52.756;6.906;2023-08-08T08:40:54;16.10;99.90
52211;DHT22;38179;52.756;6.906;2023-08-08T08:43:21;16.10;99.90
52211;DHT22;38179;52.756;6.906;2023-08-08T08:45:52;16.20;99.90
52211;DHT22;38179;52.756;6.906;2023-08-08T08:48:21;16.20;99.90
52211;DHT22;38179;52.756;6.906;2023-08-08T08:50:50;16.20;99.90
52211;DHT22;38179;52.756;6.906;2023-08-08T08:53:16;16.30;99.90
52211;DHT22;38179;52.756;6.906;2023-08-08T08:55:43;16.20;99.90
52211;DHT22;38179;52.756;6.906;2023-08-08T08:58:09;16.30;99.90
52211;DHT22;38179;52.756;6.906;2023-08-08T09:00:36;16.30;99.90
52211;DHT22;38179;52.756;6.906;2023-08-08T09:03:03;16.30;99.90
52211;DHT22;38179;52.756;6.906;2023-08-08T09:05:33;16.30;99.90
52211;DHT22;38179;52.756;6.906;2023-08-08T09:07:59;16.30;99.90
52211;DHT22;38179;52.756;6.906;2023-08-08T09:10:26;16.30;99.90
52211;DHT22;38179;52.756;6.906;2023-08-08T09:12:52;16.30;99.90
52211;DHT22;38179;52.756;6.906;2023-08-08T09:15:19;16.30;99.90
52211;DHT22;38179;52.756;6.906;2023-08-08T09:17:46;16.30;99.90
52211;DHT22;38179;52.756;6.906;2023-08-08T09:20:17;16.30;99.90
52211;DHT22;38179;52.756;6.906;2023-08-08T09:22:43;16.30;99.90
52211;DHT22;38179;52.756;6.906;2023-08-08T09:25:09;16.40;99.90
52211;DHT22;38179;52.756;6.906;2023-08-08T09:27:35;16.40;99.90
52211;DHT22;38179;52.756;6.906;2023-08-08T09:30:02;16.40;99.90
52211;DHT22;38179;52.756;6.906;2023-08-08T09:32:32;16.40;99.90
52211;DHT22;38179;52.756;6.906;2023-08-08T09:34:59;16.50;99.90
52211;DHT22;38179;52.756;6.906;2023-08-08T09:37:26;16.50;99.90
52211;DHT22;38179;52.756;6.906;2023-08-08T09:39:59;16.50;99.90
52211;DHT22;38179;52.756;6.906;2023-08-08T09:42:26;16.60;99.90
52211;DHT22;38179;52.756;6.906;2023-08-08T09:44:53;16.70;99.90
52211;DHT22;38179;52.756;6.906;2023-08-08T09:47:21;16.80;99.90
52211;DHT22;38179;52.756;6.906;2023-08-08T09:49:48;16.90;99.90
52211;DHT22;38179;52.756;6.906;2023-08-08T09:52:15;16.90;99.90
52211;DHT22;38179;52.756;6.906;2023-08-08T09:54:41;16.90;99.90
52211;DHT22;38179;52.756;6.906;2023-08-08T09:57:07;16.80;99.90
52211;DHT22;38179;52.756;6.906;2023-08-08T09:59:35;16.70;99.90
52211;DHT22;38179;52.756;6.906;2023-08-08T10:02:01;16.50;99.90
52211;DHT22;38179;52.756;6.906;2023-08-08T10:04:27;16.40;99.90
52211;DHT22;38179;52.756;6.906;2023-08-08T10:06:53;16.40;99.90
52211;DHT22;38179;52.756;6.906;2023-08-08T10:09:19;16.30;99.90
52211;DHT22;38179;52.756;6.906;2023-08-08T10:11:46;16.40;99.90
52211;DHT22;38179;52.756;6.906;2023-08-08T10:14:16;16.50;99.90
52211;DHT22;38179;52.756;6.906;2023-08-08T10:16:43;16.50;99.90
52211;DHT22;38179;52.756;6.906;2023-08-08T10:19:11;16.50;99.90
52211;DHT22;38179;52.756;6.906;2023-08-08T10:21:43;16.50;99.90
52211;DHT22;38179;52.756;6.906;2023-08-08T10:24:10;16.30;99.90
52211;DHT22;38179;52.756;6.906;2023-08-08T10:29:19;15.80;99.90
52211;DHT22;38179;52.756;6.906;2023-08-08T10:31:53;15.60;99.90
52211;DHT22;38179;52.756;6.906;2023-08-08T10:34:20;15.50;99.90
52211;DHT22;38179;52.756;6.906;2023-08-08T10:36:51;15.50;99.90
52211;DHT22;38179;52.756;6.906;2023-08-08T10:39:21;15.50;99.90
52211;DHT22;38179;52.756;6.906;2023-08-08T10:41:50;15.50;99.90
52211;DHT22;38179;52.756;6.906;2023-08-08T10:44:24;15.60;99.90
52211;DHT22;38179;52.756;6.906;2023-08-08T10:46:51;15.60;99.90
52211;DHT22;38179;52.756;6.906;2023-08-08T10:49:18;15.80;99.90
52211;DHT22;38179;52.756;6.906;2023-08-08T10:51:45;15.90;99.90
52211;DHT22;38179;52.756;6.906;2023-08-08T10:54:30;16.00;99.90
52211;DHT22;38179;52.756;6.906;2023-08-08T10:56:59;16.20;99.90
52211;DHT22;38179;52.756;6.906;2023-08-08T10:59:27;16.30;99.90
52211;DHT22;38179;52.756;6.906;2023-08-08T11:02:01;16.40;99.90
52211;DHT22;38179;52.756;6.906;2023-08-08T11:04:27;16.20;99.90
52211;DHT22;38179;52.756;6.906;2023-08-08T13:26:46;16.70;99.90
52211;DHT22;38179;52.756;6.906;2023-08-08T13:29:21;16.80;99.90
52211;DHT22;38179;52.756;6.906;2023-08-08T13:34:31;16.90;99.90
52211;DHT22;38179;52.756;6.906;2023-08-08T13:36:57;16.80;99.90
52211;DHT22;38179;52.756;6.906;2023-08-08T13:39:23;16.80;99.90
52211;DHT22;38179;52.756;6.906;2023-08-08T13:41:49;16.70;99.90
52211;DHT22;38179;52.756;6.906;2023-08-08T13:44:15;16.60;99.90
52211;DHT22;38179;52.756;6.906;2023-08-08T13:46:41;16.50;99.90
52211;DHT22;38179;52.756;6.906;2023-08-08T13:49:06;16.50;99.90
52211;DHT22;38179;52.756;6.906;2023-08-08T13:51:32;16.30;99.90
52211;DHT22;38179;52.756;6.906;2023-08-08T13:53:58;16.30;99.90
52211;DHT22;38179;52.756;6.906;2023-08-08T13:56:24;16.20;99.90
52211;DHT22;38179;52.756;6.906;2023-08-08T13:58:50;16.30;99.90
52211;DHT22;38179;52.756;6.906;2023-08-08T14:01:16;16.40;99.90
52211;DHT22;38179;52.756;6.906;2023-08-08T14:03:43;16.60;99.90
52211;DHT22;38179;52.756;6.906;2023-08-08T14:06:09;16.70;99.90
52211;DHT22;38179;52.756;6.906;2023-08-08T14:08:36;16.80;99.90
52211;DHT22;38179;52.756;6.906;2023-08-08T14:11:02;16.80;99.90
52211;DHT22;38179;52.756;6.906;2023-08-08T14:13:27;16.90;99.90
52211;DHT22;38179;52.756;6.906;2023-08-08T14:15:53;17.10;99.90
52211;DHT22;38179;52.756;6.906;2023-08-08T14:18:19;17.20;99.90
52211;DHT22;38179;52.756;6.906;2023-08-08T14:20:45;17.10;99.90
52211;DHT22;38179;52.756;6.906;2023-08-08T14:23:11;17.10;99.90
52211;DHT22;38179;52.756;6.906;2023-08-08T14:25:37;17.00;99.90
52211;DHT22;38179;52.756;6.906;2023-08-08T14:28:03;17.00;99.90
52211;DHT22;38179;52.756;6.906;2023-08-08T14:30:29;17.20;99.90
52211;DHT22;38179;52.756;6.906;2023-08-08T14:32:57;17.40;99.90
52211;DHT22;38179;52.756;6.906;2023-08-08T14:35:23;17.50;99.90
52211;DHT22;38179;52.756;6.906;2023-08-08T14:37:49;17.70;99.90
52211;DHT22;38179;52.756;6.906;2023-08-08T14:40:15;17.60;99.90
52211;DHT22;38179;52.756;6.906;2023-08-08T14:42:41;17.60;99.90
52211;DHT22;38179;52.756;6.906;2023-08-08T14:45:07;17.70;99.90
52211;DHT22;38179;52.756;6.906;2023-08-08T14:47:33;17.60;99.90
52211;DHT22;38179;52.756;6.906;2023-08-08T14:49:59;17.80;99.90
52211;DHT22;38179;52.756;6.906;2023-08-08T14:52:25;17.70;99.90
52211;DHT22;38179;52.756;6.906;2023-08-08T14:54:51;17.70;99.90
52211;DHT22;38179;52.756;6.906;2023-08-08T14:57:17;17.70;99.90
52211;DHT22;38179;52.756;6.906;2023-08-08T14:59:43;18.00;99.90
52211;DHT22;38179;52.756;6.906;2023-08-08T15:02:09;18.00;99.90
52211;DHT22;38179;52.756;6.906;2023-08-08T15:04:35;18.00;99.90
52211;DHT22;38179;52.756;6.906;2023-08-08T15:07:01;17.90;99.90
52211;DHT22;38179;52.756;6.906;2023-08-08T15:09:27;17.70;99.90
52211;DHT22;38179;52.756;6.906;2023-08-08T15:11:53;17.50;99.90
52211;DHT22;38179;52.756;6.906;2023-08-08T15:14:19;17.20;99.90
52211;DHT22;38179;52.756;6.906;2023-08-08T15:16:52;17.10;99.90
52211;DHT22;38179;52.756;6.906;2023-08-08T15:19:22;17.20;99.90
52211;DHT22;38179;52.756;6.906;2023-08-08T15:21:49;17.10;99.90
52211;DHT22;38179;52.756;6.906;2023-08-08T15:24:16;17.20;99.90
52211;DHT22;38179;52.756;6.906;2023-08-08T15:26:42;17.30;99.90
52211;DHT22;38179;52.756;6.906;2023-08-08T15:29:08;17.40;99.90
52211;DHT22;38179;52.756;6.906;2023-08-08T15:31:33;17.50;99.90
52211;DHT22;38179;52.756;6.906;2023-08-08T15:33:59;17.70;99.90
52211;DHT22;38179;52.756;6.906;2023-08-08T15:36:26;17.90;99.90
52211;DHT22;38179;52.756;6.906;2023-08-08T15:38:52;18.00;99.90
52211;DHT22;38179;52.756;6.906;2023-08-08T15:41:18;17.90;99.90
52211;DHT22;38179;52.756;6.906;2023-08-08T15:43:45;17.70;99.90
52211;DHT22;38179;52.756;6.906;2023-08-08T15:46:11;17.60;99.90
52211;DHT22;38179;52.756;6.906;2023-08-08T15:48:37;17.60;99.90
52211;DHT22;38179;52.756;6.906;2023-08-08T15:51:03;17.70;99.90
52211;DHT22;38179;52.756;6.906;2023-08-08T15:53:29;17.70;99.90
52211;DHT22;38179;52.756;6.906;2023-08-08T15:55:57;17.60;99.90
52211;DHT22;38179;52.756;6.906;2023-08-08T15:58:23;17.60;99.90
52211;DHT22;38179;52.756;6.906;2023-08-08T16:00:49;17.50;99.90
52211;DHT22;38179;52.756;6.906;2023-08-08T16:03:15;17.40;99.90
52211;DHT22;38179;52.756;6.906;2023-08-08T16:05:41;17.30;99.90
52211;DHT22;38179;52.756;6.906;2023-08-08T16:08:07;17.20;99.90
52211;DHT22;38179;52.756;6.906;2023-08-08T16:10:33;17.20;99.90
52211;DHT22;38179;52.756;6.906;2023-08-08T16:12:59;17.10;99.90
52211;DHT22;38179;52.756;6.906;2023-08-08T16:15:25;17.10;99.90
52211;DHT22;38179;52.756;6.906;2023-08-08T16:17:51;17.10;99.90
52211;DHT22;38179;52.756;6.906;2023-08-08T16:20:17;17.10;99.90
52211;DHT22;38179;52.756;6.906;2023-08-08T16:22:43;17.30;99.90
52211;DHT22;38179;52.756;6.906;2023-08-08T16:25:09;17.50;99.90
52211;DHT22;38179;52.756;6.906;2023-08-08T16:27:35;17.80;99.90
52211;DHT22;38179;52.756;6.906;2023-08-08T16:30:02;17.90;99.90
52211;DHT22;38179;52.756;6.906;2023-08-08T16:32:29;17.90;99.90
52211;DHT22;38179;52.756;6.906;2023-08-08T16:34:55;17.90;99.90
52211;DHT22;38179;52.756;6.906;2023-08-08T16:37:21;17.90;99.90
52211;DHT22;38179;52.756;6.906;2023-08-08T16:39:47;17.90;99.90
52211;DHT22;38179;52.756;6.906;2023-08-08T16:42:13;18.00;99.90
52211;DHT22;38179;52.756;6.906;2023-08-08T16:44:39;18.00;99.90
52211;DHT22;38179;52.756;6.906;2023-08-08T16:47:06;18.10;99.90
52211;DHT22;38179;52.756;6.906;2023-08-08T16:49:32;18.10;99.90
52211;DHT22;38179;52.756;6.906;2023-08-08T16:51:58;18.00;99.90
52211;DHT22;38179;52.756;6.906;2023-08-08T16:54:27;18.00;99.90
52211;DHT22;38179;52.756;6.906;2023-08-08T16:56:53;17.80;99.90
52211;DHT22;38179;52.756;6.906;2023-08-08T16:59:19;17.90;99.90
52211;DHT22;38179;52.756;6.906;2023-08-08T17:01:45;17.80;99.90
52211;DHT22;38179;52.756;6.906;2023-08-08T17:04:11;17.90;99.90
52211;DHT22;38179;52.756;6.906;2023-08-08T17:06:38;17.90;99.90
52211;DHT22;38179;52.756;6.906;2023-08-08T17:09:04;17.90;99.90
52211;DHT22;38179;52.756;6.906;2023-08-08T17:11:31;17.90;99.90
52211;DHT22;38179;52.756;6.906;2023-08-08T17:13:57;17.80;99.90
52211;DHT22;38179;52.756;6.906;2023-08-08T17:16:23;17.70;99.90
52211;DHT22;38179;52.756;6.906;2023-08-08T17:18:50;17.40;99.90
52211;DHT22;38179;52.756;6.906;2023-08-08T17:21:18;17.40;99.90
52211;DHT22;38179;52.756;6.906;2023-08-08T17:23:44;17.20;99.90
52211;DHT22;38179;52.756;6.906;2023-08-08T17:26:10;17.20;99.90
52211;DHT22;38179;52.756;6.906;2023-08-08T17:28:37;17.10;99.90
52211;DHT22;38179;52.756;6.906;2023-08-08T17:31:03;17.00;99.90
52211;DHT22;38179;52.756;6.906;2023-08-08T17:33:29;17.00;99.90
52211;DHT22;38179;52.756;6.906;2023-08-08T17:35:55;16.90;99.90
52211;DHT22;38179;52.756;6.906;2023-08-08T17:38:24;16.90;99.90
52211;DHT22;38179;52.756;6.906;2023-08-08T17:40:51;16.80;99.90
52211;DHT22;38179;52.756;6.906;2023-08-08T17:43:23;16.80;99.90
52211;DHT22;38179;52.756;6.906;2023-08-08T17:45:50;16.70;99.90
52211;DHT22;38179;52.756;6.906;2023-08-08T17:48:16;16.60;99.90
52211;DHT22;38179;52.756;6.906;2023-08-08T17:50:42;16.60;99.90
52211;DHT22;38179;52.756;6.906;2023-08-08T17:53:08;16.50;99.90
52211;DHT22;38179;52.756;6.906;2023-08-08T17:55:34;16.50;99.90
52211;DHT22;38179;52.756;6.906;2023-08-08T17:58:00;16.40;99.90
52211;DHT22;38179;52.756;6.906;2023-08-08T18:00:26;16.40;99.90
52211;DHT22;38179;52.756;6.906;2023-08-08T18:02:52;16.30;99.90
52211;DHT22;38179;52.756;6.906;2023-08-08T18:05:18;16.30;99.90
52211;DHT22;38179;52.756;6.906;2023-08-08T18:07:47;16.20;99.90
52211;DHT22;38179;52.756;6.906;2023-08-08T18:10:13;16.20;99.90
52211;DHT22;38179;52.756;6.906;2023-08-08T18:12:41;16.10;99.90
52211;DHT22;38179;52.756;6.906;2023-08-08T18:15:07;16.00;99.90
52211;DHT22;38179;52.756;6.906;2023-08-08T18:17:34;16.00;99.90
52211;DHT22;38179;52.756;6.906;2023-08-08T18:20:00;16.00;99.90
52211;DHT22;38179;52.756;6.906;2023-08-08T18:22:26;15.90;99.90
52211;DHT22;38179;52.756;6.906;2023-08-08T18:24:52;15.80;99.90
52211;DHT22;38179;52.756;6.906;2023-08-08T18:27:18;15.80;99.90
52211;DHT22;38179;52.756;6.906;2023-08-08T18:29:44;15.80;99.90
52211;DHT22;38179;52.756;6.906;2023-08-08T18:32:10;15.80;99.90
52211;DHT22;38179;52.756;6.906;2023-08-08T18:34:36;15.80;99.90
52211;DHT22;38179;52.756;6.906;2023-08-08T18:37:01;15.70;99.90
52211;DHT22;38179;52.756;6.906;2023-08-08T18:39:27;15.70;99.90
52211;DHT22;38179;52.756;6.906;2023-08-08T18:44:21;15.70;99.90
52211;DHT22;38179;52.756;6.906;2023-08-08T18:46:48;15.60;99.90
52211;DHT22;38179;52.756;6.906;2023-08-08T18:49:14;15.50;99.90
52211;DHT22;38179;52.756;6.906;2023-08-08T18:51:40;15.50;99.90
52211;DHT22;38179;52.756;6.906;2023-08-08T18:54:06;15.40;99.90
52211;DHT22;38179;52.756;6.906;2023-08-08T18:56:35;15.50;99.90
52211;DHT22;38179;52.756;6.906;2023-08-08T18:59:01;15.40;99.90
52211;DHT22;38179;52.756;6.906;2023-08-08T19:01:27;15.40;99.90
52211;DHT22;38179;52.756;6.906;2023-08-08T19:03:53;15.30;99.90
52211;DHT22;38179;52.756;6.906;2023-08-08T19:06:19;15.30;99.90
52211;DHT22;38179;52.756;6.906;2023-08-08T19:08:45;15.20;99.90
52211;DHT22;38179;52.756;6.906;2023-08-08T19:11:10;15.20;99.90
52211;DHT22;38179;52.756;6.906;2023-08-08T19:13:39;15.20;99.90
52211;DHT22;38179;52.756;6.906;2023-08-08T19:16:05;15.10;99.90
52211;DHT22;38179;52.756;6.906;2023-08-08T19:18:31;15.10;99.90
52211;DHT22;38179;52.756;6.906;2023-08-08T19:20:57;15.10;99.90
52211;DHT22;38179;52.756;6.906;2023-08-08T19:23:23;15.10;99.90
52211;DHT22;38179;52.756;6.906;2023-08-08T19:25:58;15.00;99.90
52211;DHT22;38179;52.756;6.906;2023-08-08T19:28:24;15.00;99.90
52211;DHT22;38179;52.756;6.906;2023-08-08T19:30:51;14.90;99.90
52211;DHT22;38179;52.756;6.906;2023-08-08T19:33:17;14.90;99.90
52211;DHT22;38179;52.756;6.906;2023-08-08T19:35:44;14.80;99.90
52211;DHT22;38179;52.756;6.906;2023-08-08T19:38:10;14.90;99.90
52211;DHT22;38179;52.756;6.906;2023-08-08T19:40:36;14.90;99.90
52211;DHT22;38179;52.756;6.906;2023-08-08T19:43:02;14.80;99.90
52211;DHT22;38179;52.756;6.906;2023-08-08T19:45:29;14.80;99.90
52211;DHT22;38179;52.756;6.906;2023-08-08T19:47:54;14.70;99.90
52211;DHT22;38179;52.756;6.906;2023-08-08T19:50:21;14.70;99.90
52211;DHT22;38179;52.756;6.906;2023-08-08T19:52:47;14.60;99.90
52211;DHT22;38179;52.756;6.906;2023-08-08T19:55:12;14.60;99.90
52211;DHT22;38179;52.756;6.906;2023-08-08T19:57:39;14.60;99.90
52211;DHT22;38179;52.756;6.906;2023-08-08T20:00:05;14.50;99.90
52211;DHT22;38179;52.756;6.906;2023-08-08T20:02:32;14.50;99.90
52211;DHT22;38179;52.756;6.906;2023-08-08T20:05:01;14.40;99.90
52211;DHT22;38179;52.756;6.906;2023-08-08T20:07:29;14.40;99.90
52211;DHT22;38179;52.756;6.906;2023-08-08T20:09:55;14.40;99.90
52211;DHT22;38179;52.756;6.906;2023-08-08T20:12:21;14.30;99.90
52211;DHT22;38179;52.756;6.906;2023-08-08T20:14:47;14.30;99.90
52211;DHT22;38179;52.756;6.906;2023-08-08T20:17:13;14.30;99.90
52211;DHT22;38179;52.756;6.906;2023-08-08T20:19:39;14.30;99.90
52211;DHT22;38179;52.756;6.906;2023-08-08T20:22:05;14.20;99.90